Time;durP1;ratioP1;P1;durP2;ratioP2;P2;SDS_P1;SDS_P2;PMS_P1;PMS_P2;Temp;Humidity;BMP_temperature;BMP_pressure;BME280_temperature;BME280_humidity;BME280_pressure;Samples;Min_cycle;Max_cycle;Signal;HPM_P1;HPM_P2
2024/03/27 00:02:46;;;;;;;2.22;1.88;;;;;;;;;;5861760;28;20151;-73
2024/03/27 00:05:38;;;;;;;7.25;2.92;;;;;;;;;;5861648;28;20049;-73
2024/03/27 00:08:28;;;;;;;4.15;1.83;;;;;;;;;;5861701;28;20118;-73
2024/03/27 00:11:20;;;;;;;4.22;2.55;;;;;;;;;;5861601;28;20096;-73
2024/03/27 00:14:11;;;;;;;1.75;1.30;;;;;;;;;;5878055;28;20100;-72
2024/03/27 00:17:00;;;;;;;2.28;2.08;;;;;;;;;;5861479;28;20049;-71
2024/03/27 00:19:50;;;;;;;3.53;1.77;;;;;;;;;;5878365;28;20145;-73
2024/03/27 00:22:40;;;;;;;1.70;1.60;;;;;;;;;;5861325;28;20236;-72
2024/03/27 00:25:30;;;;;;;2.75;1.52;;;;;;;;;;5861550;28;20042;-73
2024/03/27 00:28:19;;;;;;;1.67;1.05;;;;;;;;;;5861307;28;20140;-72
2024/03/27 00:31:09;;;;;;;3.40;1.52;;;;;;;;;;5861461;28;20080;-73
2024/03/27 00:33:59;;;;;;;1.08;0.98;;;;;;;;;;5861633;28;20511;-73
2024/03/27 00:36:49;;;;;;;1.58;1.45;;;;;;;;;;5860415;28;20046;-73
2024/03/27 00:39:38;;;;;;;2.67;1.33;;;;;;;;;;5860891;28;20048;-74
2024/03/27 00:42:28;;;;;;;1.33;1.00;;;;;;;;;;5861014;28;20146;-73
2024/03/27 00:45:18;;;;;;;2.53;1.70;;;;;;;;;;5861266;28;20045;-73
2024/03/27 00:48:08;;;;;;;4.63;1.77;;;;;;;;;;5860874;28;20426;-72
2024/03/27 00:50:58;;;;;;;1.45;1.35;;;;;;;;;;5845160;28;20095;-73
2024/03/27 00:53:48;;;;;;;2.55;1.73;;;;;;;;;;5860772;28;20053;-73
2024/03/27 00:56:38;;;;;;;2.13;1.98;;;;;;;;;;5860575;28;20145;-73
2024/03/27 00:59:32;;;;;;;2.45;1.50;;;;;;;;;;5860843;28;20041;-73
2024/03/27 01:02:22;;;;;;;1.05;0.95;;;;;;;;;;5868780;28;20041;-73
2024/03/27 01:05:12;;;;;;;2.38;1.83;;;;;;;;;;5884048;28;20103;-73
2024/03/27 01:08:02;;;;;;;1.58;1.30;;;;;;;;;;5883962;28;20091;-72
2024/03/27 01:10:52;;;;;;;3.20;1.92;;;;;;;;;;5884453;28;20103;-73
2024/03/27 01:13:42;;;;;;;3.78;0.93;;;;;;;;;;5883714;28;20493;-73
2024/03/27 01:16:32;;;;;;;1.27;1.20;;;;;;;;;;5883917;28;20049;-73
2024/03/27 01:19:21;;;;;;;3.60;1.13;;;;;;;;;;5867494;28;20041;-73
2024/03/27 01:22:11;;;;;;;1.45;1.35;;;;;;;;;;5883768;28;20413;-72
2024/03/27 01:25:01;;;;;;;0.80;0.65;;;;;;;;;;5883905;28;20132;-72
2024/03/27 01:27:51;;;;;;;3.22;1.73;;;;;;;;;;5884084;28;20049;-73
2024/03/27 01:30:42;;;;;;;2.70;2.40;;;;;;;;;;5900393;28;20045;-73
2024/03/27 01:33:31;;;;;;;1.48;1.27;;;;;;;;;;5883575;28;20049;-73
2024/03/27 01:36:21;;;;;;;1.08;1.05;;;;;;;;;;5883592;28;20052;-73
2024/03/27 01:39:11;;;;;;;0.68;0.68;;;;;;;;;;5883479;28;20045;-72
2024/03/27 01:42:00;;;;;;;2.03;1.48;;;;;;;;;;5883568;28;20068;-72
2024/03/27 01:44:50;;;;;;;0.70;0.50;;;;;;;;;;5884058;28;20503;-73
2024/03/27 01:47:41;;;;;;;1.85;0.90;;;;;;;;;;5884022;28;20049;-72
2024/03/27 01:50:31;;;;;;;2.78;1.00;;;;;;;;;;5871484;28;20041;-73
2024/03/27 01:53:20;;;;;;;2.38;1.77;;;;;;;;;;5887632;28;20055;-73
2024/03/27 01:56:10;;;;;;;2.20;1.58;;;;;;;;;;5887692;28;20597;-73
2024/03/27 01:59:00;;;;;;;1.15;1.05;;;;;;;;;;5888239;28;20049;-73
2024/03/27 02:01:51;;;;;;;1.52;1.42;;;;;;;;;;5871097;28;20049;-73
2024/03/27 02:04:42;;;;;;;1.98;1.30;;;;;;;;;;5870953;28;20057;-73
2024/03/27 02:07:32;;;;;;;1.45;1.15;;;;;;;;;;5887336;28;20403;-73
2024/03/27 02:10:21;;;;;;;0.90;0.90;;;;;;;;;;5870873;28;20080;-73
2024/03/27 02:13:11;;;;;;;2.72;1.73;;;;;;;;;;5886941;28;20083;-73
2024/03/27 02:16:01;;;;;;;1.15;1.13;;;;;;;;;;5870516;28;20045;-72
2024/03/27 02:18:52;;;;;;;5.38;1.77;;;;;;;;;;5887786;28;20045;-73
2024/03/27 02:21:41;;;;;;;1.90;1.75;;;;;;;;;;5886973;28;20049;-73
2024/03/27 02:24:58;;;;;;;1.10;1.00;;;;;;;;;;5887220;28;20041;-73
2024/03/27 02:27:49;;;;;;;1.08;1.05;;;;;;;;;;5871163;28;20056;-73
2024/03/27 02:30:46;;;;;;;2.33;1.25;;;;;;;;;;5870397;28;20470;-73
2024/03/27 02:33:35;;;;;;;3.47;1.27;;;;;;;;;;5903545;28;20442;-73
2024/03/27 02:36:25;;;;;;;4.07;1.75;;;;;;;;;;5886882;28;20045;-73
2024/03/27 02:39:15;;;;;;;3.15;1.80;;;;;;;;;;5886727;28;20048;-73
2024/03/27 02:42:05;;;;;;;1.58;1.38;;;;;;;;;;5886780;28;20414;-72
2024/03/27 02:44:54;;;;;;;2.78;1.67;;;;;;;;;;5887165;28;20060;-73
2024/03/27 02:47:44;;;;;;;1.08;1.00;;;;;;;;;;5886607;28;20601;-73
2024/03/27 02:50:34;;;;;;;2.13;1.83;;;;;;;;;;5886542;28;20045;-73
2024/03/27 02:53:24;;;;;;;2.05;1.60;;;;;;;;;;5886442;28;20160;-73
2024/03/27 02:56:14;;;;;;;1.83;1.45;;;;;;;;;;5886461;28;20094;-73
2024/03/27 02:59:04;;;;;;;2.03;1.85;;;;;;;;;;5886179;28;20099;-72
2024/03/27 03:01:53;;;;;;;3.83;2.20;;;;;;;;;;5886386;28;20061;-73
2024/03/27 03:04:43;;;;;;;2.25;2.08;;;;;;;;;;5886013;28;20132;-73
2024/03/27 03:07:33;;;;;;;0.98;0.90;;;;;;;;;;5886176;28;20090;-73
2024/03/27 03:10:23;;;;;;;2.92;1.98;;;;;;;;;;5886115;28;20051;-72
2024/03/27 03:13:12;;;;;;;4.75;1.00;;;;;;;;;;5885982;28;20083;-72
2024/03/27 03:16:04;;;;;;;1.65;1.33;;;;;;;;;;5885991;28;20082;-72
2024/03/27 03:18:54;;;;;;;1.52;1.25;;;;;;;;;;5886515;28;20045;-73
2024/03/27 03:21:44;;;;;;;0.52;0.52;;;;;;;;;;5885835;28;20045;-73
2024/03/27 03:24:34;;;;;;;1.70;1.25;;;;;;;;;;5885845;28;20075;-73
2024/03/27 03:27:25;;;;;;;1.70;1.15;;;;;;;;;;5885981;28;20045;-68
2024/03/27 03:30:15;;;;;;;1.73;1.63;;;;;;;;;;5885816;28;20490;-68
2024/03/27 03:33:05;;;;;;;3.45;1.05;;;;;;;;;;5885586;28;20481;-67
2024/03/27 03:35:56;;;;;;;1.17;1.00;;;;;;;;;;5886143;28;20517;-68
2024/03/27 03:38:46;;;;;;;1.80;1.58;;;;;;;;;;5885503;28;20099;-67
2024/03/27 03:41:36;;;;;;;1.05;0.98;;;;;;;;;;5885458;28;20040;-67
2024/03/27 03:44:26;;;;;;;0.73;0.73;;;;;;;;;;5885295;28;20044;-68
2024/03/27 03:47:15;;;;;;;1.33;1.23;;;;;;;;;;5885493;28;20049;-68
2024/03/27 03:50:06;;;;;;;1.35;0.93;;;;;;;;;;5885292;28;20685;-68
2024/03/27 03:52:55;;;;;;;1.92;1.13;;;;;;;;;;5885771;28;20045;-67
2024/03/27 03:55:45;;;;;;;5.68;1.92;;;;;;;;;;5885215;28;20045;-67
2024/03/27 03:58:35;;;;;;;1.02;0.95;;;;;;;;;;5868309;28;20158;-68
2024/03/27 04:01:25;;;;;;;2.35;1.30;;;;;;;;;;5885270;28;20414;-68
2024/03/27 04:04:15;;;;;;;0.75;0.75;;;;;;;;;;5868671;28;20482;-68
2024/03/27 04:07:06;;;;;;;0.88;0.88;;;;;;;;;;5885002;28;20053;-68
2024/03/27 04:09:55;;;;;;;1.17;1.08;;;;;;;;;;5885531;28;20056;-67
2024/03/27 04:12:45;;;;;;;4.97;1.08;;;;;;;;;;5883826;28;20664;-68
2024/03/27 04:15:42;;;;;;;0.93;0.85;;;;;;;;;;5884724;28;20052;-67
2024/03/27 04:18:32;;;;;;;0.68;0.68;;;;;;;;;;5901310;28;20048;-67
2024/03/27 04:21:21;;;;;;;0.73;0.63;;;;;;;;;;5868210;28;20398;-68
2024/03/27 04:24:11;;;;;;;2.65;1.23;;;;;;;;;;5901117;28;20048;-67
2024/03/27 04:27:01;;;;;;;0.38;0.38;;;;;;;;;;5884487;28;20045;-68
2024/03/27 04:29:56;;;;;;;1.50;1.25;;;;;;;;;;5884818;28;20041;-67
2024/03/27 04:32:45;;;;;;;0.60;0.40;;;;;;;;;;5884285;28;20609;-67
2024/03/27 04:35:35;;;;;;;2.40;1.52;;;;;;;;;;5884393;28;20045;-68
2024/03/27 04:38:25;;;;;;;0.50;0.50;;;;;;;;;;5884305;28;20056;-67
2024/03/27 04:41:15;;;;;;;2.65;0.85;;;;;;;;;;5884529;28;20049;-68
2024/03/27 04:44:04;;;;;;;0.50;0.50;;;;;;;;;;5884225;28;20049;-68
2024/03/27 04:46:54;;;;;;;1.08;0.95;;;;;;;;;;5884714;28;20057;-68
2024/03/27 04:49:44;;;;;;;2.20;1.73;;;;;;;;;;5884050;28;20502;-68
2024/03/27 04:52:35;;;;;;;0.82;0.82;;;;;;;;;;5884028;28;20059;-67
2024/03/27 04:55:25;;;;;;;0.50;0.50;;;;;;;;;;5867588;28;20041;-68
2024/03/27 04:58:14;;;;;;;7.82;1.48;;;;;;;;;;5884032;28;20045;-68
2024/03/27 05:01:04;;;;;;;0.50;0.50;;;;;;;;;;5884074;28;20053;-68
2024/03/27 05:03:54;;;;;;;1.33;1.23;;;;;;;;;;5884345;28;20131;-68
2024/03/27 05:06:43;;;;;;;1.25;1.15;;;;;;;;;;5883969;28;20049;-68
2024/03/27 05:09:36;;;;;;;0.95;0.65;;;;;;;;;;5883926;28;20059;-68
2024/03/27 05:12:26;;;;;;;6.13;0.95;;;;;;;;;;5884079;28;20051;-68
2024/03/27 05:15:16;;;;;;;1.23;0.93;;;;;;;;;;5883872;28;20049;-68
2024/03/27 05:18:07;;;;;;;2.67;1.88;;;;;;;;;;5883613;28;20059;-68
2024/03/27 05:20:57;;;;;;;1.98;1.30;;;;;;;;;;5884371;28;20052;-68
2024/03/27 05:23:47;;;;;;;0.93;0.88;;;;;;;;;;5886113;28;20046;-67
2024/03/27 05:26:37;;;;;;;0.90;0.90;;;;;;;;;;5888402;28;20505;-68
2024/03/27 05:29:27;;;;;;;1.17;1.13;;;;;;;;;;5888313;28;20418;-68
2024/03/27 05:32:16;;;;;;;0.70;0.70;;;;;;;;;;5888191;28;20061;-68
2024/03/27 05:35:07;;;;;;;0.75;0.63;;;;;;;;;;5888291;28;20049;-68
2024/03/27 05:37:56;;;;;;;2.28;1.00;;;;;;;;;;5888496;28;20049;-67
2024/03/27 05:40:46;;;;;;;0.75;0.75;;;;;;;;;;5888126;28;20056;-68
2024/03/27 05:43:37;;;;;;;2.45;0.85;;;;;;;;;;5887843;28;20499;-68
2024/03/27 05:46:26;;;;;;;2.33;0.90;;;;;;;;;;5888158;28;20406;-67
2024/03/27 05:49:16;;;;;;;1.50;1.05;;;;;;;;;;5887907;28;20053;-68
2024/03/27 05:52:06;;;;;;;1.58;1.48;;;;;;;;;;5887864;28;20045;-68
2024/03/27 05:54:55;;;;;;;1.60;1.50;;;;;;;;;;5888104;28;20059;-68
2024/03/27 05:57:45;;;;;;;2.03;1.42;;;;;;;;;;5887668;28;20045;-68
2024/03/27 06:00:35;;;;;;;1.00;1.00;;;;;;;;;;5887819;28;20045;-68
2024/03/27 06:03:25;;;;;;;0.77;0.60;;;;;;;;;;5887627;28;20045;-68
2024/03/27 06:06:15;;;;;;;3.25;1.45;;;;;;;;;;5887559;28;20493;-68
2024/03/27 06:09:05;;;;;;;1.90;1.52;;;;;;;;;;5904161;28;20417;-68
2024/03/27 06:11:54;;;;;;;0.73;0.73;;;;;;;;;;5887890;28;20098;-68
2024/03/27 06:14:44;;;;;;;1.33;1.25;;;;;;;;;;5887337;28;20049;-68
2024/03/27 06:17:34;;;;;;;1.27;1.17;;;;;;;;;;5887171;28;20041;-68
2024/03/27 06:20:24;;;;;;;1.40;1.05;;;;;;;;;;5887278;28;20053;-68
2024/03/27 06:23:14;;;;;;;2.88;1.55;;;;;;;;;;5887159;28;20072;-68
2024/03/27 06:26:04;;;;;;;0.70;0.70;;;;;;;;;;5887182;28;20636;-69
2024/03/27 06:28:54;;;;;;;1.80;1.20;;;;;;;;;;5887459;28;20053;-68
2024/03/27 06:31:44;;;;;;;2.25;1.60;;;;;;;;;;5886876;28;20048;-68
2024/03/27 06:34:34;;;;;;;3.88;1.58;;;;;;;;;;5886155;28;20098;-69
2024/03/27 06:37:23;;;;;;;2.00;1.52;;;;;;;;;;5887036;28;20049;-69
2024/03/27 06:40:14;;;;;;;2.22;1.42;;;;;;;;;;5870073;28;20053;-69
2024/03/27 06:43:03;;;;;;;5.38;1.35;;;;;;;;;;5886737;28;20055;-69
2024/03/27 06:45:53;;;;;;;1.75;0.95;;;;;;;;;;5887181;28;20491;-68
2024/03/27 06:48:51;;;;;;;0.98;0.73;;;;;;;;;;5886440;28;20053;-68
2024/03/27 06:51:41;;;;;;;2.45;1.38;;;;;;;;;;5886601;28;20045;-68
2024/03/27 06:54:31;;;;;;;0.82;0.70;;;;;;;;;;5886496;28;20055;-69
2024/03/27 06:57:21;;;;;;;0.95;0.73;;;;;;;;;;5886406;28;20124;-69
2024/03/27 07:00:12;;;;;;;4.82;1.02;;;;;;;;;;5886368;28;20131;-69
2024/03/27 07:03:03;;;;;;;0.95;0.73;;;;;;;;;;5865928;28;20053;-69
2024/03/27 07:05:53;;;;;;;5.68;1.70;;;;;;;;;;5886665;28;20152;-69
2024/03/27 07:08:42;;;;;;;2.67;0.50;;;;;;;;;;5886131;28;20494;-69
2024/03/27 07:11:32;;;;;;;2.22;0.98;;;;;;;;;;5886180;28;20048;-69
2024/03/27 07:14:22;;;;;;;0.60;0.60;;;;;;;;;;5885681;28;20073;-69
2024/03/27 07:17:12;;;;;;;0.60;0.60;;;;;;;;;;5885989;28;20045;-69
2024/03/27 07:20:04;;;;;;;0.90;0.82;;;;;;;;;;5885759;28;20040;-69
2024/03/27 07:22:54;;;;;;;2.25;0.80;;;;;;;;;;5886273;28;20201;-70
2024/03/27 07:25:44;;;;;;;1.15;0.65;;;;;;;;;;5885854;28;20052;-69
2024/03/27 07:28:34;;;;;;;1.23;0.60;;;;;;;;;;5885725;28;20045;-69
2024/03/27 07:31:24;;;;;;;1.77;0.60;;;;;;;;;;5902575;28;20041;-70
2024/03/27 07:34:15;;;;;;;1.05;0.63;;;;;;;;;;5885557;28;20059;-70
2024/03/27 07:37:04;;;;;;;4.15;0.77;;;;;;;;;;5902378;28;20048;-70
2024/03/27 07:39:54;;;;;;;7.13;0.77;;;;;;;;;;5886120;28;20071;-70
2024/03/27 07:42:44;;;;;;;1.35;0.73;;;;;;;;;;5885381;28;20048;-70
2024/03/27 07:45:34;;;;;;;2.53;0.90;;;;;;;;;;5885379;28;20052;-70
2024/03/27 07:48:24;;;;;;;1.65;1.05;;;;;;;;;;5885554;28;20059;-70
2024/03/27 07:51:14;;;;;;;7.13;1.30;;;;;;;;;;5885471;28;20053;-71
2024/03/27 07:54:04;;;;;;;0.70;0.47;;;;;;;;;;5885238;28;20067;-70
2024/03/27 07:57:06;;;;;;;1.95;1.08;;;;;;;;;;5885746;28;20059;-70
2024/03/27 07:59:55;;;;;;;7.20;1.52;;;;;;;;;;5885473;28;20067;-70
2024/03/27 08:02:45;;;;;;;1.08;0.63;;;;;;;;;;5868617;28;20045;-69
2024/03/27 08:05:35;;;;;;;2.58;0.77;;;;;;;;;;5885118;28;20461;-69
2024/03/27 08:08:25;;;;;;;1.90;1.10;;;;;;;;;;5885075;28;20053;-69
2024/03/27 08:11:15;;;;;;;21.83;1.17;;;;;;;;;;5884909;28;20104;-70
2024/03/27 08:14:05;;;;;;;1.13;0.90;;;;;;;;;;5885011;28;20509;-70
2024/03/27 08:16:55;;;;;;;0.80;0.52;;;;;;;;;;5901968;28;20363;-69
2024/03/27 08:19:45;;;;;;;0.85;0.68;;;;;;;;;;5884586;28;20045;-70
2024/03/27 08:22:34;;;;;;;1.33;0.60;;;;;;;;;;5884649;28;20534;-69
2024/03/27 08:25:24;;;;;;;0.95;0.57;;;;;;;;;;5884860;28;20040;-69
2024/03/27 08:28:14;;;;;;;0.65;0.60;;;;;;;;;;5884454;28;20037;-70
2024/03/27 08:31:04;;;;;;;4.07;0.75;;;;;;;;;;5884788;28;20506;-69
2024/03/27 08:33:54;;;;;;;5.75;1.58;;;;;;;;;;5884996;28;20149;-69
2024/03/27 08:36:43;;;;;;;3.00;0.60;;;;;;;;;;5884440;28;20048;-70
2024/03/27 08:39:33;;;;;;;1.77;0.93;;;;;;;;;;5868040;28;20051;-71
2024/03/27 08:42:23;;;;;;;12.90;0.93;;;;;;;;;;5884375;28;20078;-70
2024/03/27 08:45:13;;;;;;;0.68;0.60;;;;;;;;;;5867881;28;20049;-70
2024/03/27 08:48:04;;;;;;;2.05;0.70;;;;;;;;;;5884536;28;20418;-70
2024/03/27 08:50:54;;;;;;;2.25;0.68;;;;;;;;;;5884850;28;20052;-70
2024/03/27 08:53:46;;;;;;;1.05;0.65;;;;;;;;;;5884151;28;20529;-70
2024/03/27 08:56:36;;;;;;;0.82;0.65;;;;;;;;;;5867872;28;20102;-70
2024/03/27 08:59:27;;;;;;;11.93;0.70;;;;;;;;;;5883661;28;20045;-69
2024/03/27 09:02:17;;;;;;;1.27;0.68;;;;;;;;;;5884240;28;20427;-70
2024/03/27 09:05:07;;;;;;;0.80;0.55;;;;;;;;;;5883932;28;20060;-70
2024/03/27 09:07:57;;;;;;;0.93;0.57;;;;;;;;;;5884714;28;20398;-70
2024/03/27 09:10:47;;;;;;;0.82;0.50;;;;;;;;;;5884166;28;20087;-70
2024/03/27 09:13:38;;;;;;;0.40;0.35;;;;;;;;;;5883831;28;20037;-72
2024/03/27 09:16:28;;;;;;;1.35;0.82;;;;;;;;;;5900821;28;20056;-70
2024/03/27 09:19:18;;;;;;;0.75;0.57;;;;;;;;;;5883973;28;20053;-70
2024/03/27 09:22:07;;;;;;;1.88;0.65;;;;;;;;;;5883873;28;20390;-70
2024/03/27 09:24:57;;;;;;;0.30;0.20;;;;;;;;;;5884428;28;20055;-70
2024/03/27 09:27:47;;;;;;;1.08;0.47;;;;;;;;;;5883961;28;20048;-70
2024/03/27 09:30:37;;;;;;;1.80;0.77;;;;;;;;;;5884131;28;20037;-70
2024/03/27 09:33:26;;;;;;;5.03;1.15;;;;;;;;;;5883567;28;20060;-70
2024/03/27 09:36:16;;;;;;;0.28;0.28;;;;;;;;;;5883805;28;20418;-70
2024/03/27 09:39:07;;;;;;;2.38;0.77;;;;;;;;;;5883721;28;20056;-70
2024/03/27 09:42:01;;;;;;;0.80;0.43;;;;;;;;;;5884258;28;20416;-70
2024/03/27 09:44:51;;;;;;;1.35;0.50;;;;;;;;;;5883848;28;20071;-70
2024/03/27 09:47:43;;;;;;;1.35;1.05;;;;;;;;;;5883699;28;20506;-69
2024/03/27 09:50:34;;;;;;;3.63;0.90;;;;;;;;;;5867269;28;20045;-70
2024/03/27 09:53:24;;;;;;;1.08;0.63;;;;;;;;;;5867098;28;20045;-70
2024/03/27 09:56:13;;;;;;;0.70;0.28;;;;;;;;;;5883701;28;20083;-70
2024/03/27 09:59:05;;;;;;;1.05;0.47;;;;;;;;;;5866890;28;20414;-71
2024/03/27 10:02:00;;;;;;;1.65;0.43;;;;;;;;;;5884238;28;20076;-69
2024/03/27 10:04:50;;;;;;;2.53;0.35;;;;;;;;;;5883686;28;20047;-70
2024/03/27 10:07:39;;;;;;;0.30;0.25;;;;;;;;;;5883437;28;20057;-71
2024/03/27 10:10:30;;;;;;;0.10;0.03;;;;;;;;;;5885446;28;20452;-70
2024/03/27 10:13:20;;;;;;;1.15;0.45;;;;;;;;;;5887534;28;22243;-70
2024/03/27 10:16:12;;;;;;;0.40;0.22;;;;;;;;;;5887597;28;20413;-71
2024/03/27 10:19:01;;;;;;;1.80;0.57;;;;;;;;;;5887526;28;20081;-70
2024/03/27 10:21:51;;;;;;;1.00;0.40;;;;;;;;;;5888001;28;20048;-69
2024/03/27 10:24:42;;;;;;;2.47;0.60;;;;;;;;;;5887341;28;20155;-70
2024/03/27 10:27:34;;;;;;;0.93;0.40;;;;;;;;;;5870836;28;20048;-71
2024/03/27 10:30:24;;;;;;;0.20;0.13;;;;;;;;;;5904076;28;20045;-70
2024/03/27 10:33:14;;;;;;;0.10;0.10;;;;;;;;;;5903629;28;20128;-70
2024/03/27 10:36:05;;;;;;;0.22;0.22;;;;;;;;;;5887426;28;20079;-70
2024/03/27 10:38:58;;;;;;;0.45;0.43;;;;;;;;;;5887688;28;20068;-69
2024/03/27 10:41:50;;;;;;;0.70;0.43;;;;;;;;;;5887211;28;20359;-70
2024/03/27 10:44:44;;;;;;;9.38;1.08;;;;;;;;;;5903389;28;20049;-70
2024/03/27 10:47:34;;;;;;;0.85;0.65;;;;;;;;;;5870843;28;20049;-70
2024/03/27 10:50:25;;;;;;;1.60;0.65;;;;;;;;;;5886764;28;20048;-68
2024/03/27 10:53:17;;;;;;;2.83;0.90;;;;;;;;;;5870208;28;20045;-68
2024/03/27 10:56:10;;;;;;;0.47;0.45;;;;;;;;;;5853940;28;20379;-68
2024/03/27 10:59:00;;;;;;;0.32;0.30;;;;;;;;;;5887002;28;20056;-68
2024/03/27 11:02:03;;;;;;;5.00;0.90;;;;;;;;;;5886680;28;20519;-68
2024/03/27 11:05:01;;;;;;;8.45;0.98;;;;;;;;;;5886582;28;20518;-68
2024/03/27 11:07:50;;;;;;;0.70;0.70;;;;;;;;;;5886465;28;20049;-68
2024/03/27 11:10:40;;;;;;;1.50;0.55;;;;;;;;;;5886309;28;20128;-68
2024/03/27 11:13:30;;;;;;;1.38;0.88;;;;;;;;;;5902679;28;20045;-68
2024/03/27 11:16:22;;;;;;;5.10;2.40;;;;;;;;;;5869781;28;21582;-68
2024/03/27 11:19:13;;;;;;;2.60;0.93;;;;;;;;;;5886001;28;20053;-68
2024/03/27 11:26:32;;;;;;;11.23;4.40;;;;;;;;;;5886875;28;20406;-68
2024/03/27 11:29:27;;;;;;;31.50;18.90;;;;;;;;;;5885737;28;20045;-70
2024/03/27 11:32:16;;;;;;;2.85;1.08;;;;;;;;;;5885991;28;20055;-70
2024/03/27 11:35:07;;;;;;;6.50;2.38;;;;;;;;;;5885727;28;20537;-70
2024/03/27 11:37:57;;;;;;;1.25;0.52;;;;;;;;;;5886234;28;20421;-70
2024/03/27 11:40:51;;;;;;;1.42;0.55;;;;;;;;;;5885454;28;20140;-70
2024/03/27 11:43:41;;;;;;;1.90;0.93;;;;;;;;;;5885731;28;20049;-70
2024/03/27 11:46:31;;;;;;;1.85;1.13;;;;;;;;;;5885787;28;20554;-70
2024/03/27 11:49:20;;;;;;;12.93;5.78;;;;;;;;;;5876073;28;20049;-70
2024/03/27 11:52:12;;;;;;;8.82;4.30;;;;;;;;;;5885400;28;20131;-70
2024/03/27 11:55:01;;;;;;;2.80;1.00;;;;;;;;;;5885248;28;20048;-70
2024/03/27 11:57:51;;;;;;;1.20;0.50;;;;;;;;;;5885577;28;20048;-70
2024/03/27 12:00:42;;;;;;;12.63;4.90;;;;;;;;;;5885049;28;20521;-70
2024/03/27 12:03:33;;;;;;;1.73;0.70;;;;;;;;;;5885349;28;20060;-70
2024/03/27 12:06:25;;;;;;;2.75;0.70;;;;;;;;;;5868751;28;20040;-70
2024/03/27 12:09:15;;;;;;;16.58;3.63;;;;;;;;;;5884966;28;20057;-70
2024/03/27 12:12:05;;;;;;;3.22;1.13;;;;;;;;;;5901448;28;20587;-70
2024/03/27 12:14:56;;;;;;;13.20;0.47;;;;;;;;;;5868719;28;20057;-70
2024/03/27 12:17:54;;;;;;;7.72;1.65;;;;;;;;;;5901373;28;20049;-70
2024/03/27 12:20:44;;;;;;;12.15;5.45;;;;;;;;;;5901681;28;20064;-70
2024/03/27 12:23:36;;;;;;;13.07;6.60;;;;;;;;;;5884676;28;20483;-70
2024/03/27 12:26:26;;;;;;;2.25;1.60;;;;;;;;;;5884818;28;20041;-69
2024/03/27 12:29:18;;;;;;;25.48;9.82;;;;;;;;;;5884298;28;20106;-70
2024/03/27 12:32:08;;;;;;;13.23;5.43;;;;;;;;;;5884033;28;20045;-70
2024/03/27 12:35:00;;;;;;;9.82;4.40;;;;;;;;;;5884897;28;20045;-70
2024/03/27 12:37:50;;;;;;;7.25;2.97;;;;;;;;;;5884444;28;20037;-69
2024/03/27 12:40:39;;;;;;;13.07;4.85;;;;;;;;;;5884579;28;20067;-69
2024/03/27 12:43:29;;;;;;;10.23;4.75;;;;;;;;;;5867838;28;20048;-70
2024/03/27 12:46:20;;;;;;;10.05;5.07;;;;;;;;;;5884379;28;20411;-70
2024/03/27 12:49:10;;;;;;;20.35;10.07;;;;;;;;;;5884151;28;20045;-70
2024/03/27 12:52:00;;;;;;;15.65;7.75;;;;;;;;;;5884986;28;20045;-69
2024/03/27 12:54:50;;;;;;;19.95;7.22;;;;;;;;;;5884540;28;20522;-70
2024/03/27 12:57:40;;;;;;;5.07;2.95;;;;;;;;;;5900554;28;20183;-70
2024/03/27 13:00:30;;;;;;;30.70;8.02;;;;;;;;;;5867803;28;20471;-69
2024/03/27 13:03:20;;;;;;;65.55;22.00;;;;;;;;;;5884141;28;20044;-70
2024/03/27 13:06:11;;;;;;;33.95;11.63;;;;;;;;;;5883207;28;20087;-69
2024/03/27 13:09:00;;;;;;;114.25;31.25;;;;;;;;;;5886906;28;20463;-69
2024/03/27 13:11:50;;;;;;;26.08;12.05;;;;;;;;;;5879189;28;20392;-69
2024/03/27 13:14:40;;;;;;;58.72;18.10;;;;;;;;;;5870008;28;20057;-69
2024/03/27 13:17:30;;;;;;;71.35;25.95;;;;;;;;;;5861460;28;20052;-69
2024/03/27 13:20:23;;;;;;;57.20;18.40;;;;;;;;;;5860011;28;20060;-69
2024/03/27 13:23:12;;;;;;;80.00;21.48;;;;;;;;;;5860838;28;20552;-69
2024/03/27 13:26:08;;;;;;;53.47;20.83;;;;;;;;;;5845287;28;20049;-70
2024/03/27 13:28:58;;;;;;;33.65;11.80;;;;;;;;;;5861635;28;20057;-69
2024/03/27 13:31:47;;;;;;;56.83;16.92;;;;;;;;;;5861002;28;20046;-69
2024/03/27 13:34:37;;;;;;;2.25;1.05;;;;;;;;;;5860581;28;20041;-69
2024/03/27 13:37:27;;;;;;;1.85;1.23;;;;;;;;;;5861431;28;20068;-70
2024/03/27 13:40:17;;;;;;;10.82;4.53;;;;;;;;;;5861228;28;20744;-69
2024/03/27 13:43:07;;;;;;;8.20;3.65;;;;;;;;;;5876265;28;20067;-70
2024/03/27 13:45:57;;;;;;;3.95;1.95;;;;;;;;;;5865762;28;20072;-69
2024/03/27 13:48:47;;;;;;;3.38;0.80;;;;;;;;;;5870891;28;20060;-69
2024/03/27 13:51:37;;;;;;;4.50;2.40;;;;;;;;;;5887550;28;20068;-70
2024/03/27 13:54:27;;;;;;;1.35;1.05;;;;;;;;;;5875107;28;20045;-70
2024/03/27 13:57:17;;;;;;;3.78;1.20;;;;;;;;;;5865431;28;20097;-70
2024/03/27 14:00:08;;;;;;;1.33;0.20;;;;;;;;;;5848629;28;20049;-70
2024/03/27 14:02:57;;;;;;;1.02;0.47;;;;;;;;;;5887554;28;20057;-70
2024/03/27 14:05:47;;;;;;;0.45;0.45;;;;;;;;;;5888492;28;20146;-70
2024/03/27 14:08:37;;;;;;;0.73;0.63;;;;;;;;;;5887728;28;20120;-70
2024/03/27 14:11:31;;;;;;;1.95;0.93;;;;;;;;;;5881606;28;20045;-70
2024/03/27 14:14:20;;;;;;;1.33;0.60;;;;;;;;;;5846986;28;20057;-70
2024/03/27 14:17:10;;;;;;;0.40;0.40;;;;;;;;;;5863179;28;20053;-70
2024/03/27 14:20:00;;;;;;;0.20;0.20;;;;;;;;;;5848433;28;20573;-70
2024/03/27 14:22:50;;;;;;;2.53;1.02;;;;;;;;;;5864439;28;20045;-70
2024/03/27 14:25:39;;;;;;;2.83;0.50;;;;;;;;;;5864159;28;20431;-70
2024/03/27 14:28:29;;;;;;;1.17;0.95;;;;;;;;;;5864170;28;20072;-70
2024/03/27 14:31:19;;;;;;;2.42;0.93;;;;;;;;;;5864088;28;20053;-70
2024/03/27 14:34:09;;;;;;;1.35;0.70;;;;;;;;;;5863919;28;20054;-70
2024/03/27 14:36:58;;;;;;;1.20;0.75;;;;;;;;;;5864540;28;20111;-70
2024/03/27 14:39:48;;;;;;;1.40;1.15;;;;;;;;;;5863897;28;20124;-69
2024/03/27 14:42:38;;;;;;;1.88;0.93;;;;;;;;;;5864030;28;20037;-69
2024/03/27 14:45:28;;;;;;;0.60;0.50;;;;;;;;;;5863828;28;20064;-69
2024/03/27 14:48:18;;;;;;;5.93;1.25;;;;;;;;;;5863711;28;20053;-69
2024/03/27 14:51:07;;;;;;;0.60;0.60;;;;;;;;;;5863683;28;20053;-69
2024/03/27 14:53:57;;;;;;;2.70;1.00;;;;;;;;;;5864194;28;20418;-68
2024/03/27 14:56:47;;;;;;;1.58;0.65;;;;;;;;;;5862510;28;20054;-69
2024/03/27 14:59:37;;;;;;;0.60;0.60;;;;;;;;;;5863250;28;20045;-69
2024/03/27 15:02:26;;;;;;;3.88;0.82;;;;;;;;;;5863493;28;20052;-69
2024/03/27 15:05:16;;;;;;;0.63;0.63;;;;;;;;;;5863185;28;20057;-69
2024/03/27 15:08:06;;;;;;;2.00;0.98;;;;;;;;;;5863295;28;20045;-69
2024/03/27 15:10:56;;;;;;;1.17;0.47;;;;;;;;;;5847297;28;20057;-69
2024/03/27 15:13:46;;;;;;;0.68;0.52;;;;;;;;;;5863075;28;20055;-69
2024/03/27 15:16:36;;;;;;;0.90;0.47;;;;;;;;;;5862880;28;20384;-69
2024/03/27 15:19:26;;;;;;;16.85;7.40;;;;;;;;;;5863158;28;20042;-69
2024/03/27 15:22:16;;;;;;;26.48;11.63;;;;;;;;;;5863092;28;20049;-69
2024/03/27 15:25:06;;;;;;;5.53;3.78;;;;;;;;;;5879544;28;20192;-69
2024/03/27 15:27:56;;;;;;;1.00;0.90;;;;;;;;;;5863446;28;20076;-68
2024/03/27 15:30:45;;;;;;;11.30;6.13;;;;;;;;;;5862822;28;20092;-68
2024/03/27 15:33:35;;;;;;;1.20;0.90;;;;;;;;;;5862314;28;20065;-68
2024/03/27 15:36:28;;;;;;;1.65;0.80;;;;;;;;;;5862751;28;20045;-69
2024/03/27 15:39:18;;;;;;;3.22;2.15;;;;;;;;;;5862555;28;20404;-69
2024/03/27 15:42:07;;;;;;;2.47;1.85;;;;;;;;;;5862654;28;20132;-69
2024/03/27 15:44:57;;;;;;;3.45;1.55;;;;;;;;;;5862859;28;20053;-68
2024/03/27 15:47:47;;;;;;;4.68;1.88;;;;;;;;;;5862275;28;20055;-68
2024/03/27 15:50:37;;;;;;;4.57;1.52;;;;;;;;;;5846092;28;20052;-68
2024/03/27 15:53:27;;;;;;;4.43;2.05;;;;;;;;;;5862232;28;20510;-68
2024/03/27 15:56:20;;;;;;;14.68;2.33;;;;;;;;;;5862176;28;20372;-68
2024/03/27 15:59:10;;;;;;;1.25;1.08;;;;;;;;;;5845426;28;20055;-68
2024/03/27 16:01:59;;;;;;;1.23;1.02;;;;;;;;;;5862630;28;20117;-69
2024/03/27 16:04:49;;;;;;;2.67;0.90;;;;;;;;;;5845435;28;20048;-68
2024/03/27 16:07:39;;;;;;;2.70;1.25;;;;;;;;;;5845368;28;20110;-68
2024/03/27 16:10:29;;;;;;;1.25;0.73;;;;;;;;;;5862061;28;20152;-69
2024/03/27 16:13:18;;;;;;;0.77;0.75;;;;;;;;;;5861655;28;20049;-68
2024/03/27 16:16:08;;;;;;;2.08;0.95;;;;;;;;;;5861835;28;20045;-68
2024/03/27 16:18:58;;;;;;;0.90;0.82;;;;;;;;;;5861803;28;20409;-68
2024/03/27 16:21:48;;;;;;;1.50;0.77;;;;;;;;;;5845418;28;20076;-68
2024/03/27 16:24:38;;;;;;;4.93;3.35;;;;;;;;;;5861447;28;20045;-68
2024/03/27 16:27:28;;;;;;;3.72;2.97;;;;;;;;;;5861466;28;20052;-68
2024/03/27 16:30:18;;;;;;;11.55;3.28;;;;;;;;;;5861633;28;20045;-68
2024/03/27 16:33:07;;;;;;;45.70;22.70;;;;;;;;;;5861247;28;20514;-68
2024/03/27 16:35:57;;;;;;;4.55;1.85;;;;;;;;;;5861852;28;20107;-68
2024/03/27 16:38:48;;;;;;;22.10;9.35;;;;;;;;;;5861230;28;20057;-68
2024/03/27 16:41:38;;;;;;;3.58;1.10;;;;;;;;;;5844904;28;20054;-68
2024/03/27 16:44:27;;;;;;;4.40;1.80;;;;;;;;;;5861178;28;20059;-68
2024/03/27 16:47:17;;;;;;;2.63;1.35;;;;;;;;;;5861393;28;20079;-68
2024/03/27 16:50:08;;;;;;;3.88;2.70;;;;;;;;;;5860888;28;20645;-68
2024/03/27 16:52:57;;;;;;;1.85;1.58;;;;;;;;;;5861557;28;20056;-68
2024/03/27 16:55:47;;;;;;;17.02;1.83;;;;;;;;;;5861037;28;20053;-68
2024/03/27 16:58:37;;;;;;;3.03;1.80;;;;;;;;;;5860731;28;20044;-68
2024/03/27 17:01:28;;;;;;;10.50;3.28;;;;;;;;;;5844680;28;20042;-68
2024/03/27 17:04:17;;;;;;;1.92;1.13;;;;;;;;;;5860774;28;20103;-68